createdAt,value
2022-09-07T00:00:09.269Z,28.17
2022-09-07T00:05:11.045Z,28.00
2022-09-07T00:10:12.668Z,28.20
2022-09-07T00:15:14.384Z,29.27
2022-09-07T00:20:16.117Z,31.70
2022-09-07T00:25:17.830Z,33.10
2022-09-07T00:30:19.498Z,26.95
2022-09-07T00:35:21.157Z,26.45
2022-09-07T00:40:22.788Z,25.70
2022-09-07T00:45:24.768Z,23.95
2022-09-07T00:50:32.552Z,26.05
2022-09-07T00:55:37.353Z,23.55
2022-09-07T01:00:41.861Z,25.10
2022-09-07T01:05:52.677Z,25.55
2022-09-07T01:10:55.429Z,24.63
2022-09-07T01:16:17.354Z,24.60
2022-09-07T01:21:24.305Z,24.73
2022-09-07T01:26:59.743Z,24.25
2022-09-07T01:32:12.732Z,23.13
2022-09-07T01:37:33.097Z,20.15
2022-09-07T01:42:47.513Z,21.95
2022-09-07T01:47:54.647Z,22.00
2022-09-07T01:53:03.040Z,22.25
2022-09-07T01:58:23.331Z,21.17
2022-09-07T02:03:34.451Z,21.13
2022-09-07T02:09:00.920Z,21.33
2022-09-07T02:14:24.736Z,22.23
2022-09-07T02:19:34.166Z,21.52
2022-09-07T02:24:49.933Z,21.80
2022-09-07T02:29:52.245Z,21.73
2022-09-07T02:34:53.873Z,21.05
2022-09-07T02:39:55.711Z,20.48
2022-09-07T02:44:57.724Z,19.48
2022-09-07T02:50:20.462Z,20.65
2022-09-07T02:55:40.373Z,19.95
2022-09-07T03:00:59.026Z,20.52
2022-09-07T03:06:07.866Z,19.63
2022-09-07T03:11:10.182Z,19.85
2022-09-07T03:16:15.963Z,19.90
2022-09-07T03:21:17.649Z,18.15
2022-09-07T03:26:25.178Z,20.40
2022-09-07T03:31:26.961Z,22.30
2022-09-07T03:36:32.262Z,21.42
2022-09-07T03:41:34.722Z,21.50
2022-09-07T03:46:36.503Z,20.83
2022-09-07T03:51:39.817Z,20.05
2022-09-07T03:56:45.882Z,21.23
2022-09-07T04:01:49.415Z,22.85
2022-09-07T04:06:51.375Z,21.25
2022-09-07T04:11:53.029Z,20.23
2022-09-07T04:16:54.970Z,20.73
2022-09-07T04:21:56.702Z,20.25
2022-09-07T04:26:58.372Z,20.25
2022-09-07T04:32:00.022Z,18.42
2022-09-07T04:37:01.667Z,19.05
2022-09-07T04:42:03.620Z,18.95
2022-09-07T04:47:05.441Z,18.13
2022-09-07T04:52:07.144Z,18.73
2022-09-07T04:57:10.978Z,18.65
2022-09-07T05:02:12.702Z,19.08
2022-09-07T05:07:14.533Z,18.90
2022-09-07T05:12:16.507Z,21.38
2022-09-07T05:17:19.402Z,23.27
2022-09-07T05:22:21.098Z,24.55
2022-09-07T05:27:22.806Z,21.88
2022-09-07T05:32:24.598Z,21.65
2022-09-07T05:37:26.273Z,17.63
2022-09-07T05:42:28.007Z,16.77
2022-09-07T05:47:29.842Z,18.25
2022-09-07T05:52:31.523Z,21.98
2022-09-07T05:57:33.171Z,16.80
2022-09-07T06:02:39.531Z,17.75
2022-09-07T06:07:42.004Z,16.10
2022-09-07T06:12:49.177Z,13.18
2022-09-07T06:17:51.346Z,14.70
2022-09-07T06:22:52.988Z,15.73
2022-09-07T06:27:54.646Z,14.73
2022-09-07T06:32:56.328Z,15.90
2022-09-07T06:37:58.239Z,16.00
2022-09-07T06:42:59.895Z,14.57
2022-09-07T06:48:01.554Z,16.52
2022-09-07T06:58:25.943Z,14.25
2022-09-07T07:03:28.631Z,14.65
2022-09-07T07:08:30.754Z,13.93
2022-09-07T07:13:32.498Z,13.77
2022-09-07T07:18:35.103Z,14.30
2022-09-07T07:23:37.599Z,13.93
2022-09-07T07:34:02.102Z,11.07
2022-09-07T07:39:04.523Z,11.35
2022-09-07T07:44:06.221Z,12.75
2022-09-07T07:49:07.807Z,13.30
2022-09-07T07:54:09.607Z,12.80
2022-09-07T07:59:15.474Z,11.90
2022-09-07T08:04:17.416Z,10.43
2022-09-07T08:09:19.000Z,10.82
2022-09-07T08:14:21.952Z,12.05
2022-09-07T08:19:23.553Z,10.63
2022-09-07T08:24:25.784Z,11.43
2022-09-07T08:29:27.519Z,9.27
2022-09-07T08:34:29.103Z,9.68
2022-09-07T08:39:31.176Z,7.97
2022-09-07T08:44:48.907Z,9.13
2022-09-07T08:50:04.748Z,8.95
2022-09-07T08:55:32.067Z,8.35
2022-09-07T09:00:36.057Z,7.25
2022-09-07T09:05:43.913Z,8.45
2022-09-07T09:11:10.827Z,7.05
2022-09-07T09:16:42.754Z,6.28
2022-09-07T09:21:45.542Z,7.22
2022-09-07T09:26:51.686Z,7.25
2022-09-07T09:31:53.681Z,8.57
2022-09-07T09:36:56.454Z,7.85
2022-09-07T09:42:19.770Z,8.00
2022-09-07T09:47:32.877Z,8.00
2022-09-07T09:52:47.659Z,8.88
2022-09-07T10:04:00.994Z,8.90
2022-09-07T10:09:03.627Z,8.70
2022-09-07T10:14:05.585Z,9.65
2022-09-07T10:19:34.019Z,8.65
2022-09-07T10:24:39.607Z,9.32
2022-09-07T10:29:41.767Z,9.98
2022-09-07T10:34:55.314Z,9.68
2022-09-07T10:40:00.726Z,9.02
2022-09-07T10:45:20.598Z,8.57
2022-09-07T10:50:36.710Z,8.32
2022-09-07T10:56:00.042Z,9.13
2022-09-07T11:01:24.193Z,8.05
2022-09-07T11:06:32.209Z,8.07
2022-09-07T11:17:13.956Z,8.35
2022-09-07T11:22:22.834Z,8.40
2022-09-07T11:27:44.017Z,8.57
2022-09-07T11:32:55.327Z,8.90
2022-09-07T11:38:02.783Z,7.85
2022-09-07T11:43:22.454Z,7.82
2022-09-07T11:48:33.383Z,7.47
2022-09-07T11:53:44.396Z,6.75
2022-09-07T11:59:05.271Z,5.85
2022-09-07T12:04:29.458Z,6.13
2022-09-07T12:10:02.502Z,5.75
2022-09-07T12:15:28.342Z,5.18
2022-09-07T12:20:47.319Z,5.88
2022-09-07T12:25:51.404Z,6.93
2022-09-07T12:31:04.541Z,6.85
2022-09-07T12:36:28.146Z,7.40
2022-09-07T12:47:30.075Z,8.70
2022-09-07T12:52:45.810Z,9.60
2022-09-07T12:58:04.708Z,10.55
2022-09-07T13:08:44.083Z,13.10
2022-09-07T13:14:17.120Z,15.13
2022-09-07T13:19:50.927Z,19.60
2022-09-07T13:24:55.693Z,20.23
2022-09-07T13:30:15.214Z,15.98
2022-09-07T13:35:22.674Z,7.53
2022-09-07T13:40:27.203Z,6.00
2022-09-07T13:45:28.944Z,4.53
2022-09-07T13:50:44.181Z,3.90
2022-09-07T13:55:56.828Z,4.13
2022-09-07T14:01:02.497Z,4.10
2022-09-07T14:06:37.223Z,3.65
2022-09-07T14:11:54.350Z,3.97
2022-09-07T14:17:07.223Z,4.15
2022-09-07T14:22:14.690Z,4.03
2022-09-07T14:27:23.718Z,3.72
2022-09-07T14:32:27.162Z,4.20
2022-09-07T14:37:29.629Z,4.82
2022-09-07T14:42:32.125Z,4.03
2022-09-07T14:47:38.253Z,4.32
2022-09-07T14:53:33.318Z,3.88
2022-09-07T14:58:13.697Z,4.35
2022-09-07T15:03:29.694Z,4.85
2022-09-07T15:08:42.565Z,5.25
2022-09-07T15:13:45.524Z,5.22
2022-09-07T15:18:54.934Z,6.43
2022-09-07T15:24:01.358Z,8.52
2022-09-07T15:29:11.109Z,12.05
2022-09-07T15:34:16.056Z,12.38
2022-09-07T15:39:21.242Z,13.70
2022-09-07T15:44:26.480Z,14.45
2022-09-07T15:49:29.708Z,14.02
2022-09-07T15:54:35.246Z,14.02
2022-09-07T15:59:38.670Z,16.42
2022-09-07T16:04:40.401Z,16.75
2022-09-07T16:09:42.055Z,16.38
2022-09-07T16:14:43.854Z,15.88
2022-09-07T16:19:45.566Z,16.40
2022-09-07T16:24:48.074Z,13.82
2022-09-07T16:29:49.719Z,11.18
2022-09-07T16:34:51.366Z,12.23
2022-09-07T16:39:53.364Z,10.98
2022-09-07T16:46:02.207Z,10.15
2022-09-07T16:50:16.756Z,9.75
2022-09-07T16:55:18.704Z,13.25
2022-09-07T17:00:20.758Z,12.90
2022-09-07T17:05:22.757Z,12.73
2022-09-07T17:10:24.471Z,11.88
2022-09-07T17:15:26.234Z,10.27
2022-09-07T17:20:28.285Z,10.75
2022-09-07T17:25:29.912Z,10.13
2022-09-07T17:30:33.047Z,10.70
2022-09-07T17:35:37.438Z,10.23
2022-09-07T17:40:39.239Z,11.63
2022-09-07T17:45:40.932Z,10.68
2022-09-07T17:50:42.790Z,11.60
2022-09-07T17:55:44.877Z,11.50
2022-09-07T18:00:46.655Z,12.05
2022-09-07T18:05:53.974Z,12.00
2022-09-07T18:16:30.276Z,13.90
2022-09-07T18:21:35.267Z,12.52
2022-09-07T18:26:39.137Z,14.00
2022-09-07T18:31:40.814Z,13.20
2022-09-07T18:36:44.028Z,13.85
2022-09-07T18:41:45.870Z,14.63
2022-09-07T18:46:47.464Z,14.43
2022-09-07T18:57:10.683Z,15.98
2022-09-07T19:02:12.520Z,13.65
2022-09-07T19:07:14.191Z,13.90
2022-09-07T19:12:15.838Z,15.02
2022-09-07T19:17:17.993Z,13.93
2022-09-07T19:22:19.663Z,14.15
2022-09-07T19:27:21.267Z,15.38
2022-09-07T19:32:22.895Z,13.85
2022-09-07T19:37:25.746Z,14.60
2022-09-07T19:42:28.081Z,17.30
2022-09-07T19:47:29.741Z,17.20
2022-09-07T19:52:31.553Z,18.42
2022-09-07T19:57:33.177Z,20.77
2022-09-07T20:02:34.787Z,21.40
2022-09-07T20:07:36.428Z,18.58
2022-09-07T20:12:38.144Z,17.55
2022-09-07T20:17:39.779Z,17.92
2022-09-07T20:22:41.437Z,18.52
2022-09-07T20:27:43.135Z,18.95
2022-09-07T20:32:44.818Z,19.13
2022-09-07T20:37:46.446Z,18.70
2022-09-07T20:42:48.290Z,18.20
2022-09-07T20:47:49.884Z,17.10
2022-09-07T20:52:51.474Z,18.88
2022-09-07T20:57:53.201Z,19.02
2022-09-07T21:02:54.803Z,20.88
2022-09-07T21:07:56.606Z,19.15
2022-09-07T21:12:58.225Z,17.73
2022-09-07T21:17:59.813Z,18.10
2022-09-07T21:23:01.473Z,18.95
2022-09-07T21:28:03.109Z,18.98
2022-09-07T21:33:04.802Z,18.58
2022-09-07T21:38:06.440Z,20.40
2022-09-07T21:43:08.332Z,19.60
2022-09-07T21:48:10.157Z,19.73
2022-09-07T21:53:12.730Z,19.55
2022-09-07T21:58:14.903Z,18.23
2022-09-07T22:03:16.818Z,17.38
2022-09-07T22:08:18.639Z,17.75
2022-09-07T22:13:20.467Z,17.30
2022-09-07T22:18:22.140Z,18.90
2022-09-07T22:23:23.779Z,16.70
2022-09-07T22:28:25.667Z,16.67
2022-09-07T22:33:27.274Z,15.15
2022-09-07T22:38:28.928Z,15.55
2022-09-07T22:43:30.545Z,15.48
2022-09-07T22:48:32.773Z,15.63
2022-09-07T22:53:37.534Z,16.40
2022-09-07T22:58:39.660Z,16.58
2022-09-07T23:03:41.661Z,15.80
2022-09-07T23:08:43.843Z,17.42
2022-09-07T23:13:45.880Z,17.15
2022-09-07T23:18:48.413Z,17.70
2022-09-07T23:23:55.313Z,18.52
2022-09-07T23:29:02.465Z,17.10
2022-09-07T23:34:04.627Z,16.63
2022-09-07T23:39:06.271Z,16.38
2022-09-07T23:44:08.133Z,17.73
2022-09-07T23:49:09.777Z,17.58
2022-09-07T23:54:11.378Z,17.15
2022-09-07T23:59:12.983Z,17.52
